Latest Coastal Weather Observations for Brisbane Airport

IDQ60701

Issued at 6:52 pm EST Sunday 28 August 2016 (issued every 10 minutes, with the page automatically refreshed every 10 minutes)

About coastal observations | Map of coastal stations | Coastal observations for QLD | Marine services | Other Formats
Station Details ID: 040842 Name: BRISBANE AERO Lat: -27.39 Lon: 153.13 Height: 4.51 m
Data from the previous 72 hours. | See also: Recent months at Brisbane Airport
Date/Time
EST
Temp
°C
Wind Pressure Rain since
9am
mm
Weather Cloud Vis
km
Sea
Height
m
Swell
Dir  Spd
kts
Gust
kts
hPa Trend Height
m
Period
s
Dir
28/06:30pm 17.8 NE 5 6 1022.1 - 0.0 - - 10 - - - -
28/06:00pm 18.2 ENE 6 8 1021.9 S 0.0 Smoke Clear 30 - - - -
28/05:30pm 18.5 NE 7 10 1021.6 - 0.0 - - 10 - - - -
28/05:00pm 19.4 NE 9 11 1021.4 - 0.0 - Mostly clear 10 - - - -
28/04:30pm 19.7 NE 10 14 1020.9 - 0.0 - Mostly clear 10 - - - -
28/04:00pm 20.4 NE 11 14 1020.6 - 0.0 - Mostly clear 10 - - - -
28/03:30pm 20.8 NNE 10 12 1020.8 - 0.0 - Mostly clear 10 - - - -
28/03:00pm 21.2 NE 8 10 1021.0 R 0.0 Fine Mostly clear 30 - - - -
28/02:30pm 21.3 NE 8 10 1021.1 - 0.0 - Mostly clear 10 - - - -
28/02:00pm 21.5 NE 8 12 1021.2 - 0.0 - Mostly clear 10 - - - -
28/01:30pm 20.9 NNE 10 14 1021.3 - 0.0 - Mostly clear 10 - - - -
28/01:00pm 20.7 ENE 8 11 1021.7 - 0.0 - Mostly clear 10 - - - -
28/12:30pm 21.2 E 8 14 1022.3 - 0.0 - Mostly clear 10 - - - -
28/12:00pm 21.6 ENE 6 9 1022.7 R 0.0 Fine Mostly clear 30 - - - -
28/11:30am 20.7 SSE 7 10 1023.5 - 0.0 - Mostly clear 10 - - - -
28/11:00am 20.4 S 7 11 1023.9 - 0.0 - Mostly clear 10 - - - -
28/10:30am 19.4 SW 9 14 1024.1 - 0.0 - Mostly clear 10 - - - -
28/10:00am 19.1 SW 10 15 1024.2 - 0.0 - - 10 - - - -
28/09:30am 18.2 SW 11 15 1024.2 - 0.0 - - 10 - - - -
28/09:00am 17.4 SSW 12 16 1024.0 R 0.0 Fine Clear 30 - - - -
28/08:30am 16.2 SSW 12 16 1024.0 - 0.0 - - 10 - - - -
28/08:00am 14.7 SSW 8 11 1023.8 - 0.0 - - 10 - - - -
28/07:30am 12.6 SSW 6 8 1023.5 - 0.0 - - 10 - - - -
28/07:00am 10.4 SSW 6 6 1023.1 - 0.0 - - 10 - - - -
28/06:30am 9.0 SSW 7 8 1022.7 - 0.0 - - 10 - - - -
28/06:00am 7.4 SW 5 6 1022.4 R 0.0 Fine Clear 30 - - - -
28/05:30am 8.5 SSW 5 6 1022.3 - 0.0 - - 10 - - - -
28/05:00am 9.3 SW 5 6 1021.8 - 0.0 - - 10 - - - -
28/04:30am 8.9 SSW 5 5 1021.6 - 0.0 - - 10 - - - -
28/04:00am 9.0 SSW 6 7 1021.5 - 0.0 - - 10 - - - -
28/03:30am 10.6 SSW 8 9 1021.4 - 0.0 - - 10 - - - -
28/03:00am 9.5 SSW 5 6 1021.2 S 0.0 Fine Clear 30 - - - -
28/02:30am 10.3 SW 7 7 1021.3 - 0.0 - - 10 - - - -
28/02:00am 10.6 SSW 6 7 1021.8 - 0.0 - - 10 - - - -
28/01:30am 9.2 SW 6 7 1021.8 - 0.0 - - 10 - - - -
28/01:00am 11.6 SSW 5 5 1021.6 - 0.0 - - 10 - - - -
28/12:30am 12.6 SSW 5 7 1021.8 - 0.0 - - 10 - - - -
28/12:00am 10.8 SW 6 7 1021.9 R 0.0 Distant precip. Mostly clear 30 - - - -
 
Date/Time
EST
Temp
°C
Wind Pressure Rain since
9am
mm
Weather Cloud Vis
km
Sea
Height
m
Swell
Dir  Spd
kts
Gust
kts
hPa Trend Height
m
Period
s
Dir
27/11:30pm 10.9 SW 5 6 1022.0 - 0.0 - - 10 - - - -
27/11:00pm 12.7 SSW 6 7 1021.7 - 0.0 - - 10 - - - -
27/10:30pm 12.5 SSW 5 5 1021.7 - 0.0 - - 10 - - - -
27/10:00pm 12.4 SSW 4 6 1021.8 - 0.0 - - 10 - - - -
27/09:30pm 13.5 SSE 1 4 1021.5 - 0.0 - - 10 - - - -
27/09:00pm 13.9 S 4 5 1021.3 R 0.0 Distant precip. Mostly clear 30 - - - -
27/08:30pm 13.5 SSW 4 5 1021.0 - 0.0 - - 10 - - - -
27/08:00pm 12.6 SW 3 5 1020.8 - 0.0 - Mostly clear 10 - - - -
27/07:30pm 14.5 CALM 0 0 1020.6 - 0.0 - Mostly clear 10 - - - -
27/07:00pm 16.7 ENE 4 5 1020.4 - 0.0 - - 10 - - - -
27/06:30pm 17.0 ENE 5 7 1020.1 - 0.0 - Partly cloudy 10 - - - -
27/06:00pm 17.6 ESE 5 6 1019.6 R 0.0 Fine Mostly clear 30 - - - -
27/05:30pm 18.5 WSW 8 11 1018.9 - 0.0 - Cloudy 10 - - - -
27/05:00pm 19.4 WSW 9 11 1018.5 - 0.0 - Partly cloudy 10 - - - -
27/04:30pm 20.0 WSW 10 16 1018.2 - 0.0 - Mostly clear 10 - - - -
27/04:00pm 20.4 WSW 10 14 1018.0 - 0.0 - Mostly clear 10 - - - -
27/03:30pm 20.2 WSW 10 16 1017.9 - 0.0 - Mostly clear 10 - - - -
27/03:00pm 20.5 SW 11 17 1017.8 R 0.0 Fine Mostly clear 30 - - - -
27/02:30pm 20.7 SW 10 18 1017.9 - 0.0 - Mostly clear 10 - - - -
27/02:00pm 20.8 WSW 11 17 1018.1 - 0.0 - Mostly clear 10 - - - -
27/01:30pm 20.2 SW 12 22 1018.4 - 0.0 - Mostly clear 10 - - - -
27/01:00pm 20.3 SW 12 19 1018.5 - 0.0 - Mostly clear 10 - - - -
27/12:30pm 20.3 SSW 11 17 1018.8 - 0.0 - Mostly clear 10 - - - -
27/12:00pm 20.1 SSW 11 16 1019.0 R 0.0 Fine Mostly clear 30 - - - -
27/11:30am 19.1 SSW 12 17 1019.3 - 0.0 - Mostly clear 10 - - - -
27/11:00am 18.5 SW 12 17 1019.6 - 0.0 - Mostly clear 10 - - - -
27/10:30am 18.4 SW 14 18 1020.1 - 0.0 - Mostly clear 10 - - - -
27/10:00am 17.3 SW 12 17 1020.4 - 0.0 - Mostly clear 10 - - - -
27/09:30am 16.2 SSW 14 17 1020.3 - 0.0 - - 10 - - - -
27/09:00am 16.0 SW 14 18 1020.2 F 0.0 Fine Mostly clear 30 - - - -
27/08:30am 15.4 SW 14 17 1020.1 - 0.0 - - 10 - - - -
27/08:00am 14.5 SW 10 13 1019.9 - 0.0 - - 10 - - - -
27/07:30am 12.2 WSW 5 6 1019.7 - 0.0 - - 10 - - - -
27/07:00am 10.3 SW 1 5 1019.6 - 0.0 - - 10 - - - -
27/06:30am 8.8 SW 2 4 1019.5 - 0.0 - Mostly clear 10 - - - -
27/06:00am 9.4 CALM 0 0 1019.2 R 0.0 Fine Mostly clear 30 - - - -
27/05:30am 9.0 WSW 5 7 1019.0 - 0.0 - Mostly clear 10 - - - -
27/05:00am 9.4 SW 6 7 1018.4 - 0.0 - - 10 - - - -
27/04:30am 10.2 SW 7 8 1018.1 - 0.0 - Partly cloudy 10 - - - -
27/04:00am 9.4 SW 6 8 1017.9 - 0.0 - - 10 - - - -
27/03:30am 10.4 WSW 8 10 1017.7 - 0.0 - Partly cloudy 10 - - - -
27/03:00am 11.2 SW 8 10 1017.7 R 0.0 Fine Partly cloudy 30 - - - -
27/02:30am 12.2 SW 9 12 1017.7 - 0.0 - Mostly clear 10 - - - -
27/02:00am 12.6 SSW 8 10 1017.8 - 0.0 - Mostly clear 10 - - - -
27/01:30am 11.3 SW 11 14 1017.6 - 0.0 - Partly cloudy 10 - - - -
27/01:00am 12.3 WSW 10 13 1017.4 - 0.0 - - 10 - - - -
27/12:30am 12.1 WSW 9 11 1017.4 - 0.0 - - 10 - - - -
27/12:00am 12.0 WSW 10 13 1017.3 R 0.0 Fine Mostly clear 30 - - - -
 
Date/Time
EST
Temp
°C
Wind Pressure Rain since
9am
mm
Weather Cloud Vis
km
Sea
Height
m
Swell
Dir  Spd
kts
Gust
kts
hPa Trend Height
m
Period
s
Dir
26/11:30pm 12.6 WSW 10 13 1017.3 - 0.0 - - 10 - - - -
26/11:00pm 13.1 WSW 10 15 1017.1 - 0.0 - - 10 - - - -
26/10:30pm 13.7 WSW 13 16 1017.1 - 0.0 - Partly cloudy 10 - - - -
26/10:00pm 14.2 WSW 12 15 1017.2 - 0.0 - Cloudy 10 - - - -
26/09:30pm 14.8 W 14 18 1017.1 - 0.0 - Partly cloudy 10 - - - -
26/09:00pm 15.4 W 10 14 1016.9 R 0.0 Fine Mostly cloudy 30 - - - -
26/08:30pm 15.4 W 8 10 1016.8 - 0.0 - Cloudy 10 - - - -
26/08:00pm 15.0 WSW 6 8 1016.8 - 0.0 - Cloudy 10 - - - -
26/07:30pm 14.7 WSW 7 9 1016.6 - 0.0 - Partly cloudy 10 - - - -
26/07:00pm 14.2 CALM 0 4 1016.2 - 0.0 - Mostly clear 10 - - - -
26/06:30pm 15.1 CALM 0 0 1015.8 - 0.0 - Mostly clear 10 - - - -
26/06:00pm 14.5 CALM 0 0 1015.4 R 0.0 Fine Mostly clear 30 - - - -
26/05:30pm 16.2 CALM 0 0 1015.0 - 0.0 - Mostly clear 10 - - - -
26/05:00pm 17.3 N 5 6 1014.9 - 0.0 - Partly cloudy 10 - - - -
26/04:30pm 18.0 NNE 4 6 1014.5 - 0.0 - Partly cloudy 10 - - - -
26/04:00pm 19.2 NNE 5 8 1014.1 - 0.0 - Partly cloudy 10 - - - -
26/03:30pm 18.5 NNE 7 8 1014.2 - 0.0 - Partly cloudy 10 - - - -
26/03:00pm 18.9 NE 8 11 1014.0 R 0.0 Fine Partly cloudy 30 - - - -
26/02:30pm 18.8 NNE 9 11 1014.2 - 0.0 - Partly cloudy 10 - - - -
26/02:00pm 19.8 NNE 6 9 1014.2 - 0.0 - - 10 - - - -
26/01:30pm 19.9 NNE 7 9 1014.5 - 0.0 - Partly cloudy 10 - - - -
26/01:00pm 19.9 N 9 11 1014.8 - 0.0 - Partly cloudy 10 - - - -
26/12:30pm 20.0 SW 6 8 1015.1 - 0.0 - Partly cloudy 10 - - - -
26/12:00pm 18.5 SW 7 13 1015.6 F 0.0 Fine Mostly clear 30 - - - -
26/11:30am 18.1 SW 7 10 1016.1 - 0.0 - Partly cloudy 10 - - - -
26/11:00am 18.0 SW 9 14 1016.4 - 0.0 - Mostly clear 10 - - - -
26/10:30am 17.4 SW 11 15 1016.7 - 0.0 - Mostly clear 10 - - - -
26/10:00am 16.8 SW 11 17 1017.1 - 0.0 - Mostly clear 10 - - - -
26/09:30am 16.2 SSW 11 16 1017.4 - 0.0 - Mostly clear 10 - - - -
26/09:00am 15.5 SW 12 16 1017.7 F 0.0 Fine Mostly clear 30 - - - -
26/08:30am 14.8 WSW 9 13 1017.9 - 0.0 - Mostly clear 10 - - - -
26/08:00am 13.3 SW 11 15 1017.7 - 0.0 - Mostly clear 10 - - - -
26/07:30am 12.3 WSW 9 10 1017.6 - 0.0 - Mostly clear 10 - - - -
26/07:00am 9.5 WSW 6 8 1017.4 - 0.0 - Mostly clear 10 - - - -
26/06:30am 8.2 WSW 5 8 1017.1 - 0.0 - - 10 - - - -
26/06:00am 8.5 WSW 6 8 1016.7 R 0.0 Fine Clear 30 - - - -
26/05:30am 8.7 WNW 4 5 1016.5 - 0.0 - - 10 - - - -
26/05:00am 9.3 WNW 6 6 1016.1 - 0.0 - - 10 - - - -
26/04:30am 9.4 WSW 9 13 1015.7 - 0.0 - - 10 - - - -
26/04:00am 10.0 WSW 11 15 1015.3 - 0.0 - - 10 - - - -
26/03:30am 10.1 WSW 10 14 1015.0 - 0.0 - - 10 - - - -
26/03:00am 10.1 WSW 9 13 1015.0 R 0.0 Fine Clear 30 - - - -
26/02:30am 10.9 WSW 10 14 1015.1 - 0.0 - - 10 - - - -
26/02:00am 10.8 SW 13 15 1015.2 - 0.0 - - 10 - - - -
26/01:30am 10.8 WSW 10 14 1015.3 - 0.0 - - 10 - - - -
26/01:00am 11.8 SW 11 13 1015.3 - 0.0 - - 10 - - - -
26/12:30am 11.7 SW 11 15 1015.5 - 0.0 - - 10 - - - -
26/12:00am 12.2 SW 11 14 1015.6 R 0.0 Fine Clear 30 - - - -
 
Date/Time
EST
Temp
°C
Wind Pressure Rain since
9am
mm
Weather Cloud Vis
km
Sea
Height
m
Swell
Dir  Spd
kts
Gust
kts
hPa Trend Height
m
Period
s
Dir
25/11:30pm 12.6 WSW 12 15 1015.6 - 0.0 - - 10 - - - -
25/11:00pm 12.7 SW 11 15 1015.7 - 0.0 - - 10 - - - -
25/10:30pm 13.0 SW 13 17 1015.8 - 0.0 - - 10 - - - -
25/10:00pm 12.7 WSW 12 16 1015.7 - 0.0 - - 10 - - - -
25/09:30pm 13.2 WSW 10 15 1015.7 - 0.0 - - 10 - - - -
25/09:00pm 12.9 WSW 10 13 1015.6 R 0.0 Fine Clear 30 - - - -
25/08:30pm 13.6 WSW 10 12 1015.6 - 0.0 - - 10 - - - -
25/08:00pm 13.8 WSW 9 11 1015.3 - 0.0 - - 10 - - - -
25/07:30pm 14.8 WSW 11 14 1015.0 - 0.0 - - 10 - - - -
25/07:00pm 15.2 W 11 15 1014.6 - 0.0 - - 10 - - - -

Other Formats:

Comma delimited format used in spreadsheet applications
http://www.bom.gov.au/fwo/IDQ60701/IDQ60701.94578.axf

JavaScript Object Notation format (JSON) in row-major order
http://www.bom.gov.au/fwo/IDQ60701/IDQ60701.94578.json